Terminal Aerodrome Forecast
Issued by NWS

Home | Current Version | Previous Version | Text Only | Print | Product List | Glossary On
Versions: 1 2 3 4 5 6 7 8 9 10 11 12 13 14 15 16 17 18 19 20
000
FTUS43 KBIS 251131
TAFMOT
TAF
KMOT 251131Z 2512/2612 10005KT P6SM SHRA OVC070
     FM251800 05012KT 6SM SHRA OVC025
     FM252200 07010KT P6SM -SHRA VCTS OVC025CB
     FM260100 05008KT P6SM OVC015
     FM260500 32006KT P6SM OVC008=

USA.gov is the U.S. government's official web portal to all federal, state and local government web resources and services.